Time;durP1;ratioP1;P1;durP2;ratioP2;P2;SDS_P1;SDS_P2;PMS_P1;PMS_P2;Temp;Humidity;BMP_temperature;BMP_pressure;BME280_temperature;BME280_humidity;BME280_pressure;Samples;Min_cycle;Max_cycle;Signal;HPM_P1;HPM_P2
2023/12/01 00:00:31;;;;;;;;;;;;;;;;;;4990656;28;129460;-79
2023/12/01 00:02:57;;;;;;;;;;;;;;;;;;5005953;28;118040;-78
2023/12/01 00:05:24;;;;;;;;;;;;;;;;;;5001832;28;129517;-79
2023/12/01 00:07:50;;;;;;;;;;;;;;;;;;4998202;28;118049;-78
2023/12/01 00:10:16;;;;;;;;;;;;;;;;;;5001501;28;128208;-79
2023/12/01 00:12:43;;;;;;;;;;;;;;;;;;5005599;28;121716;-79
2023/12/01 00:15:09;;;;;;;;;;;;;;;;;;4999194;28;119959;-79
2023/12/01 00:17:35;;;;;;;;;;;;;;;;;;5020609;28;111532;-79
2023/12/01 00:20:02;;;;;;;;;;;;;;;;;;5014863;28;130039;-78
2023/12/01 00:22:29;;;;;;;;;;;;;;;;;;5009289;28;120122;-79
2023/12/01 00:24:55;;;;;;;;;;;;;;;;;;5004750;28;129946;-79
2023/12/01 00:27:21;;;;;;;;;;;;;;;;;;5000150;28;118775;-80
2023/12/01 00:29:48;;;;;;;;;;;;;;;;;;5012111;28;129554;-79
2023/12/01 00:32:14;;;;;;;;;;;;;;;;;;5009026;28;101639;-78
2023/12/01 00:34:41;;;;;;;;;;;;;;;;;;5008731;28;117734;-79
2023/12/01 00:37:08;;;;;;;;;;;;;;;;;;5016049;28;127486;-79
2023/12/01 00:39:34;;;;;;;;;;;;;;;;;;5025247;28;124858;-79
2023/12/01 00:42:03;;;;;;;;;;;;;;;;;;5011417;28;117351;-79
2023/12/01 00:44:29;;;;;;;;;;;;;;;;;;5024974;28;127929;-80
2023/12/01 00:46:59;;;;;;;;;;;;;;;;;;5014699;28;126391;-79
2023/12/01 00:49:25;;;;;;;;;;;;;;;;;;5014034;27;127440;-80
2023/12/01 00:51:51;;;;;;;;;;;;;;;;;;5029102;28;127964;-79
2023/12/01 00:54:19;;;;;;;;;;;;;;;;;;5027747;28;118577;-80
2023/12/01 00:56:45;;;;;;;;;;;;;;;;;;5014914;28;126882;-80
2023/12/01 00:59:12;;;;;;;;;;;;;;;;;;5025024;27;130307;-79
2023/12/01 01:01:38;;;;;;;;;;;;;;;;;;5014139;28;118021;-79
2023/12/01 01:04:05;;;;;;;;;;;;;;;;;;5013445;28;126560;-79
2023/12/01 01:06:31;;;;;;;;;;;;;;;;;;5020406;27;129331;-79
2023/12/01 01:08:58;;;;;;;;;;;;;;;;;;5011008;28;128436;-79
2023/12/01 01:11:24;;;;;;;;;;;;;;;;;;5021513;27;128314;-79
2023/12/01 01:13:50;;;;;;;;;;;;;;;;;;5011586;28;118912;-80
2023/12/01 01:16:17;;;;;;;;;;;;;;;;;;5008780;28;129086;-80
2023/12/01 01:18:43;;;;;;;;;;;;;;;;;;5023462;28;128238;-79
2023/12/01 01:21:10;;;;;;;;;;;;;;;;;;5007334;28;117990;-77
2023/12/01 01:23:36;;;;;;;;;;;;;;;;;;5018656;28;128479;-80
2023/12/01 01:26:03;;;;;;;;;;;;;;;;;;5017803;28;126638;-79
2023/12/01 01:28:29;;;;;;;;;;;;;;;;;;5027579;28;120760;-79
2023/12/01 01:30:57;;;;;;;;;;;;;;;;;;5021247;27;128483;-79
2023/12/01 01:33:23;;;;;;;;;;;;;;;;;;5010982;28;117321;-80
2023/12/01 01:35:50;;;;;;;;;;;;;;;;;;5021457;27;99279;-79
2023/12/01 01:38:16;;;;;;;;;;;;;;;;;;5016754;28;129350;-79
2023/12/01 01:40:43;;;;;;;;;;;;;;;;;;5017697;28;116216;-80
2023/12/01 01:43:09;;;;;;;;;;;;;;;;;;5010483;28;129081;-80
2023/12/01 01:45:35;;;;;;;;;;;;;;;;;;5017464;28;129647;-79
2023/12/01 01:48:02;;;;;;;;;;;;;;;;;;5021535;28;117234;-79
2023/12/01 01:50:28;;;;;;;;;;;;;;;;;;5020604;28;126460;-79
2023/12/01 01:52:54;;;;;;;;;;;;;;;;;;5015832;28;118507;-78
2023/12/01 01:55:21;;;;;;;;;;;;;;;;;;5018688;28;127563;-79
2023/12/01 01:57:48;;;;;;;;;;;;;;;;;;5018495;28;128245;-79
2023/12/01 02:00:16;;;;;;;;;;;;;;;;;;5027258;28;117764;-79
2023/12/01 02:02:43;;;;;;;;;;;;;;;;;;5023949;28;127057;-79
2023/12/01 02:05:13;;;;;;;;;;;;;;;;;;5008018;28;128970;-79
2023/12/01 02:07:40;;;;;;;;;;;;;;;;;;5010402;28;117426;-78
2023/12/01 02:10:06;;;;;;;;;;;;;;;;;;5018952;28;125190;-80
2023/12/01 02:12:33;;;;;;;;;;;;;;;;;;5016558;27;128162;-79
2023/12/01 02:14:59;;;;;;;;;;;;;;;;;;5017550;28;124068;-78
2023/12/01 02:17:26;;;;;;;;;;;;;;;;;;5020818;28;128552;-79
2023/12/01 02:19:52;;;;;;;;;;;;;;;;;;5020786;28;117496;-78
2023/12/01 02:22:19;;;;;;;;;;;;;;;;;;5024825;28;100096;-78
2023/12/01 02:24:45;;;;;;;;;;;;;;;;;;5005482;28;128971;-79
2023/12/01 02:27:11;;;;;;;;;;;;;;;;;;5016602;28;117601;-79
2023/12/01 02:29:38;;;;;;;;;;;;;;;;;;5009630;28;127758;-79
2023/12/01 02:32:07;;;;;;;;;;;;;;;;;;5014822;28;130810;-78
2023/12/01 02:34:34;;;;;;;;;;;;;;;;;;5015919;28;117009;-80
2023/12/01 02:37:00;;;;;;;;;;;;;;;;;;5027256;28;126879;-79
2023/12/01 02:39:27;;;;;;;;;;;;;;;;;;5014263;28;117860;-79
2023/12/01 02:41:53;;;;;;;;;;;;;;;;;;5015606;28;127877;-79
2023/12/01 02:44:19;;;;;;;;;;;;;;;;;;5007365;28;130310;-79
2023/12/01 02:46:45;;;;;;;;;;;;;;;;;;5015721;28;116754;-79
2023/12/01 02:49:14;;;;;;;;;;;;;;;;;;5016806;28;126422;-79
2023/12/01 02:51:41;;;;;;;;;;;;;;;;;;5006713;28;128496;-80
2023/12/01 02:54:07;;;;;;;;;;;;;;;;;;5008833;28;117367;-80
2023/12/01 02:56:33;;;;;;;;;;;;;;;;;;5019655;28;127840;-80
2023/12/01 02:59:00;;;;;;;;;;;;;;;;;;5013370;28;114689;-79
2023/12/01 03:01:26;;;;;;;;;;;;;;;;;;5009292;28;127854;-79
2023/12/01 03:03:53;;;;;;;;;;;;;;;;;;5010093;28;126939;-79
2023/12/01 03:06:19;;;;;;;;;;;;;;;;;;5026468;28;98220;-78
2023/12/01 03:08:46;;;;;;;;;;;;;;;;;;5020396;28;104602;-80
2023/12/01 03:11:13;;;;;;;;;;;;;;;;;;5022956;28;100844;-80
2023/12/01 03:13:39;;;;;;;;;;;;;;;;;;5010430;28;117674;-80
2023/12/01 03:16:05;;;;;;;;;;;;;;;;;;5013329;28;127938;-79
2023/12/01 03:18:32;;;;;;;;;;;;;;;;;;5019290;27;98441;-79
2023/12/01 03:20:58;;;;;;;;;;;;;;;;;;5007911;28;127933;-80
2023/12/01 03:23:25;;;;;;;;;;;;;;;;;;5015968;28;128271;-80
2023/12/01 03:25:51;;;;;;;;;;;;;;;;;;5016463;28;117607;-79
2023/12/01 03:28:17;;;;;;;;;;;;;;;;;;5007105;28;128298;-79
2023/12/01 03:30:44;;;;;;;;;;;;;;;;;;5016265;28;128494;-80
2023/12/01 03:33:12;;;;;;;;;;;;;;;;;;5014104;28;117718;-78
2023/12/01 03:35:38;;;;;;;;;;;;;;;;;;5023626;28;126818;-80
2023/12/01 03:38:07;;;;;;;;;;;;;;;;;;5019844;28;128046;-80
2023/12/01 03:40:33;;;;;;;;;;;;;;;;;;5012070;28;126923;-79
2023/12/01 03:43:00;;;;;;;;;;;;;;;;;;5009240;28;128091;-78
2023/12/01 03:45:26;;;;;;;;;;;;;;;;;;5004856;28;117252;-79
2023/12/01 03:47:52;;;;;;;;;;;;;;;;;;5007762;28;128326;-79
2023/12/01 03:50:19;;;;;;;;;;;;;;;;;;5023419;28;129465;-78
2023/12/01 03:52:46;;;;;;;;;;;;;;;;;;5008175;28;117809;-80
2023/12/01 03:55:12;;;;;;;;;;;;;;;;;;5016188;28;128911;-79
2023/12/01 03:57:39;;;;;;;;;;;;;;;;;;5029932;28;128867;-78
2023/12/01 04:00:08;;;;;;;;;;;;;;;;;;5020606;28;118698;-78
2023/12/01 04:02:41;;;;;;;;;;;;;;;;;;5024250;28;99886;-78
2023/12/01 04:05:08;;;;;;;;;;;;;;;;;;5030510;28;117616;-79
2023/12/01 04:07:34;;;;;;;;;;;;;;;;;;5020025;28;128380;-79
2023/12/01 04:10:00;;;;;;;;;;;;;;;;;;5028739;28;126143;-79
2023/12/01 04:12:30;;;;;;;;;;;;;;;;;;5024231;28;121142;-79
2023/12/01 04:14:57;;;;;;;;;;;;;;;;;;5014354;28;126667;-78
2023/12/01 04:17:23;;;;;;;;;;;;;;;;;;5012819;28;106408;-78
2023/12/01 04:19:50;;;;;;;;;;;;;;;;;;5021985;28;124426;-78
2023/12/01 04:22:17;;;;;;;;;;;;;;;;;;5020860;27;99303;-79
2023/12/01 04:24:43;;;;;;;;;;;;;;;;;;5028972;28;119961;-80
2023/12/01 04:27:10;;;;;;;;;;;;;;;;;;5021074;28;123044;-77
2023/12/01 04:29:38;;;;;;;;;;;;;;;;;;5018478;28;129470;-80
2023/12/01 04:32:04;;;;;;;;;;;;;;;;;;5019797;28;123876;-79
2023/12/01 04:34:31;;;;;;;;;;;;;;;;;;5018018;27;128627;-79
2023/12/01 04:36:57;;;;;;;;;;;;;;;;;;5016904;27;129149;-80
2023/12/01 04:39:23;;;;;;;;;;;;;;;;;;5017514;28;123189;-79
2023/12/01 04:41:50;;;;;;;;;;;;;;;;;;5024591;28;129825;-78
2023/12/01 04:44:16;;;;;;;;;;;;;;;;;;5019885;28;127543;-80
2023/12/01 04:46:42;;;;;;;;;;;;;;;;;;5009361;28;129710;-80
2023/12/01 04:49:09;;;;;;;;;;;;;;;;;;5013189;28;129382;-79
2023/12/01 04:51:36;;;;;;;;;;;;;;;;;;5019690;28;116767;-79
2023/12/01 04:54:03;;;;;;;;;;;;;;;;;;5017074;28;129816;-79
2023/12/01 04:56:29;;;;;;;;;;;;;;;;;;5016934;28;128718;-79
2023/12/01 04:58:55;;;;;;;;;;;;;;;;;;5007899;28;123798;-80
2023/12/01 05:01:21;;;;;;;;;;;;;;;;;;5008762;28;129467;-80
2023/12/01 05:03:48;;;;;;;;;;;;;;;;;;5007596;28;128271;-78
2023/12/01 05:06:14;;;;;;;;;;;;;;;;;;5011433;28;118726;-80
2023/12/01 05:08:41;;;;;;;;;;;;;;;;;;5028271;27;129520;-80
2023/12/01 05:11:07;;;;;;;;;;;;;;;;;;5027826;28;123159;-80
2023/12/01 05:13:33;;;;;;;;;;;;;;;;;;5019675;28;129021;-80
2023/12/01 05:16:00;;;;;;;;;;;;;;;;;;5009665;27;129804;-79
2023/12/01 05:18:26;;;;;;;;;;;;;;;;;;5015644;28;123180;-80
2023/12/01 05:20:53;;;;;;;;;;;;;;;;;;5006230;28;129079;-80
2023/12/01 05:23:19;;;;;;;;;;;;;;;;;;5008812;28;130406;-79
2023/12/01 05:25:47;;;;;;;;;;;;;;;;;;5022644;28;119282;-79
2023/12/01 05:28:13;;;;;;;;;;;;;;;;;;5014583;28;129405;-78
2023/12/01 05:30:40;;;;;;;;;;;;;;;;;;5008017;28;123102;-80
2023/12/01 05:33:09;;;;;;;;;;;;;;;;;;5022421;28;129226;-78
2023/12/01 05:35:35;;;;;;;;;;;;;;;;;;5015470;27;130114;-80
2023/12/01 05:38:04;;;;;;;;;;;;;;;;;;5005939;28;122378;-80
2023/12/01 05:40:30;;;;;;;;;;;;;;;;;;5016279;28;117363;-78
2023/12/01 05:42:57;;;;;;;;;;;;;;;;;;5019966;27;130214;-80
2023/12/01 05:45:23;;;;;;;;;;;;;;;;;;5017818;27;110426;-79
2023/12/01 05:47:52;;;;;;;;;;;;;;;;;;5011861;28;127260;-80
2023/12/01 05:50:18;;;;;;;;;;;;;;;;;;5014113;28;118932;-79
2023/12/01 05:52:45;;;;;;;;;;;;;;;;;;5008771;28;128928;-79
2023/12/01 05:55:14;;;;;;;;;;;;;;;;;;5017105;28;129445;-80
2023/12/01 05:57:42;;;;;;;;;;;;;;;;;;5019478;27;123228;-79
2023/12/01 06:00:12;;;;;;;;;;;;;;;;;;5008931;28;129092;-79
2023/12/01 06:02:39;;;;;;;;;;;;;;;;;;5021895;28;130587;-80
2023/12/01 06:05:05;;;;;;;;;;;;;;;;;;5017435;28;123293;-79
2023/12/01 06:07:31;;;;;;;;;;;;;;;;;;5016044;28;99409;-78
2023/12/01 06:09:58;;;;;;;;;;;;;;;;;;5015524;28;129525;-79
2023/12/01 06:12:25;;;;;;;;;;;;;;;;;;5020168;28;130065;-79
2023/12/01 06:14:51;;;;;;;;;;;;;;;;;;5009675;28;130277;-79
2023/12/01 06:17:17;;;;;;;;;;;;;;;;;;5023437;28;123016;-79
2023/12/01 06:19:44;;;;;;;;;;;;;;;;;;5007407;28;128980;-79
2023/12/01 06:22:10;;;;;;;;;;;;;;;;;;5007052;28;129477;-79
2023/12/01 06:24:36;;;;;;;;;;;;;;;;;;5014826;27;123151;-79
2023/12/01 06:27:04;;;;;;;;;;;;;;;;;;5020453;28;127649;-79
2023/12/01 06:29:30;;;;;;;;;;;;;;;;;;5009438;28;129524;-79
2023/12/01 06:31:57;;;;;;;;;;;;;;;;;;5022882;28;123287;-79
2023/12/01 06:34:23;;;;;;;;;;;;;;;;;;5017773;28;129718;-79
2023/12/01 06:36:49;;;;;;;;;;;;;;;;;;5008011;28;120271;-79
2023/12/01 06:39:16;;;;;;;;;;;;;;;;;;5010900;28;123582;-79
2023/12/01 06:41:42;;;;;;;;;;;;;;;;;;5013764;28;130261;-79
2023/12/01 06:44:09;;;;;;;;;;;;;;;;;;5020103;28;121782;-79
2023/12/01 06:46:36;;;;;;;;;;;;;;;;;;5010420;28;129427;-78
2023/12/01 06:49:02;;;;;;;;;;;;;;;;;;5007279;28;129175;-79
2023/12/01 06:51:28;;;;;;;;;;;;;;;;;;5006536;28;123060;-79
2023/12/01 06:53:56;;;;;;;;;;;;;;;;;;5020822;28;129135;-79
2023/12/01 06:56:23;;;;;;;;;;;;;;;;;;5012118;27;122273;-78
2023/12/01 06:58:49;;;;;;;;;;;;;;;;;;5015682;28;103862;-79
2023/12/01 07:01:18;;;;;;;;;;;;;;;;;;5007401;28;129657;-79
2023/12/01 07:03:45;;;;;;;;;;;;;;;;;;5015216;28;122732;-79
2023/12/01 07:06:13;;;;;;;;;;;;;;;;;;5001268;28;118095;-78
2023/12/01 07:08:40;;;;;;;;;;;;;;;;;;5011154;28;129542;-78
2023/12/01 07:11:06;;;;;;;;;;;;;;;;;;5003401;28;125604;-78
2023/12/01 07:13:32;;;;;;;;;;;;;;;;;;5004250;28;129040;-79
2023/12/01 07:15:59;;;;;;;;;;;;;;;;;;5020971;27;98222;-78
2023/12/01 07:18:26;;;;;;;;;;;;;;;;;;5014790;28;118210;-78
2023/12/01 07:20:52;;;;;;;;;;;;;;;;;;5012448;28;130019;-77
2023/12/01 07:23:18;;;;;;;;;;;;;;;;;;5025663;28;123180;-78
2023/12/01 07:25:48;;;;;;;;;;;;;;;;;;5011248;28;130067;-78
2023/12/01 07:28:14;;;;;;;;;;;;;;;;;;5017058;28;126916;-77
2023/12/01 07:30:41;;;;;;;;;;;;;;;;;;5013441;28;123247;-77
2023/12/01 07:33:10;;;;;;;;;;;;;;;;;;5016878;28;129751;-77
2023/12/01 07:35:37;;;;;;;;;;;;;;;;;;5017554;27;130180;-79
2023/12/01 07:38:06;;;;;;;;;;;;;;;;;;5015205;28;122810;-79
2023/12/01 07:40:32;;;;;;;;;;;;;;;;;;5014611;28;129539;-78
2023/12/01 07:42:59;;;;;;;;;;;;;;;;;;5020912;28;123181;-79
2023/12/01 07:45:25;;;;;;;;;;;;;;;;;;5008418;27;126977;-78
2023/12/01 07:47:52;;;;;;;;;;;;;;;;;;4999824;28;132060;-78
2023/12/01 07:50:19;;;;;;;;;;;;;;;;;;5001634;28;119478;-78
2023/12/01 07:52:45;;;;;;;;;;;;;;;;;;5004871;28;129419;-78
2023/12/01 07:55:11;;;;;;;;;;;;;;;;;;5001400;28;129408;-78
2023/12/01 07:57:38;;;;;;;;;;;;;;;;;;5000640;28;123110;-77
2023/12/01 08:00:05;;;;;;;;;;;;;;;;;;4993415;28;124382;-77
2023/12/01 08:02:32;;;;;;;;;;;;;;;;;;4996537;28;122930;-77
2023/12/01 08:04:59;;;;;;;;;;;;;;;;;;5001519;28;128840;-78
2023/12/01 08:07:25;;;;;;;;;;;;;;;;;;4990092;28;129855;-78
2023/12/01 08:09:53;;;;;;;;;;;;;;;;;;5003107;28;123588;-78
2023/12/01 08:12:19;;;;;;;;;;;;;;;;;;4989977;28;129323;-79
2023/12/01 08:14:46;;;;;;;;;;;;;;;;;;5002687;28;129407;-77
2023/12/01 08:17:12;;;;;;;;;;;;;;;;;;4999850;28;121947;-76
2023/12/01 08:19:39;;;;;;;;;;;;;;;;;;4996842;28;98960;-76
2023/12/01 08:22:05;;;;;;;;;;;;;;;;;;4995653;28;123876;-82
2023/12/01 08:24:32;;;;;;;;;;;;;;;;;;5002017;28;117103;-77
2023/12/01 08:27:00;;;;;;;;;;;;;;;;;;4992629;28;130282;-77
2023/12/01 08:29:26;;;;;;;;;;;;;;;;;;4994058;28;121074;-77
2023/12/01 08:31:52;;;;;;;;;;;;;;;;;;4996025;28;129668;-77
2023/12/01 08:34:19;;;;;;;;;;;;;;;;;;4995560;28;129686;-76
2023/12/01 08:36:48;;;;;;;;;;;;;;;;;;4994623;28;122970;-75
2023/12/01 08:39:14;;;;;;;;;;;;;;;;;;4998603;28;129962;-77
2023/12/01 08:41:41;;;;;;;;;;;;;;;;;;4998261;28;130482;-77
2023/12/01 08:44:07;;;;;;;;;;;;;;;;;;4997862;28;129715;-77
2023/12/01 08:46:33;;;;;;;;;;;;;;;;;;4998890;28;126254;-75
2023/12/01 08:49:00;;;;;;;;;;;;;;;;;;4999775;28;125739;-77
2023/12/01 08:51:26;;;;;;;;;;;;;;;;;;4997848;28;128932;-77
2023/12/01 08:53:52;;;;;;;;;;;;;;;;;;4997484;28;130364;-77
2023/12/01 08:56:19;;;;;;;;;;;;;;;;;;4991457;28;120190;-78
2023/12/01 08:58:45;;;;;;;;;;;;;;;;;;4997798;28;125891;-77
2023/12/01 09:01:12;;;;;;;;;;;;;;;;;;4993901;28;130333;-77
2023/12/01 09:03:38;;;;;;;;;;;;;;;;;;4998704;28;123563;-78
2023/12/01 09:06:04;;;;;;;;;;;;;;;;;;4993410;28;130509;-77
2023/12/01 09:08:31;;;;;;;;;;;;;;;;;;4991343;28;121739;-77
2023/12/01 09:10:58;;;;;;;;;;;;;;;;;;4993864;28;128769;-77
2023/12/01 09:13:24;;;;;;;;;;;;;;;;;;4994452;28;118138;-76
2023/12/01 09:15:51;;;;;;;;;;;;;;;;;;4996534;28;98277;-76
2023/12/01 09:18:17;;;;;;;;;;;;;;;;;;4991926;28;129696;-76
2023/12/01 09:20:44;;;;;;;;;;;;;;;;;;4998071;28;129758;-75
2023/12/01 09:23:10;;;;;;;;;;;;;;;;;;5002769;28;121565;-76
2023/12/01 09:25:36;;;;;;;;;;;;;;;;;;4994764;28;129084;-77
2023/12/01 09:28:03;;;;;;;;;;;;;;;;;;4998071;28;124052;-77
2023/12/01 09:30:29;;;;;;;;;;;;;;;;;;4998398;28;130961;-77
2023/12/01 09:32:55;;;;;;;;;;;;;;;;;;4993578;28;129424;-78
2023/12/01 09:35:23;;;;;;;;;;;;;;;;;;4994268;28;123353;-79
2023/12/01 09:38:09;;;;;;;;;;;;;;;;;;4995243;28;100232;-78
2023/12/01 09:40:36;;;;;;;;;;;;;;;;;;4993968;28;124993;-78
2023/12/01 09:43:03;;;;;;;;;;;;;;;;;;4993432;28;106862;-78
2023/12/01 09:45:29;;;;;;;;;;;;;;;;;;4995790;28;129781;-78
2023/12/01 09:47:56;;;;;;;;;;;;;;;;;;4990428;28;123140;-78
2023/12/01 09:50:22;;;;;;;;;;;;;;;;;;4991938;28;129271;-78
2023/12/01 09:52:49;;;;;;;;;;;;;;;;;;4998261;28;130399;-78
2023/12/01 09:55:15;;;;;;;;;;;;;;;;;;4997474;28;122357;-77
2023/12/01 09:57:42;;;;;;;;;;;;;;;;;;4993977;28;129786;-77
2023/12/01 10:00:15;;;;;;;;;;;;;;;;;;4998385;28;128222;-78
2023/12/01 10:02:41;;;;;;;;;;;;;;;;;;4995953;28;125943;-77
2023/12/01 10:05:08;;;;;;;;;;;;;;;;;;4994147;28;130097;-77
2023/12/01 10:07:34;;;;;;;;;;;;;;;;;;4995264;28;123158;-76
2023/12/01 10:10:00;;;;;;;;;;;;;;;;;;4998191;28;129326;-77
2023/12/01 10:12:27;;;;;;;;;;;;;;;;;;4997936;28;130177;-77
2023/12/01 10:14:54;;;;;;;;;;;;;;;;;;4994695;28;123816;-76
2023/12/01 10:17:21;;;;;;;;;;;;;;;;;;4996084;28;128998;-78
2023/12/01 10:19:47;;;;;;;;;;;;;;;;;;4998190;28;129455;-77
2023/12/01 10:22:14;;;;;;;;;;;;;;;;;;4997616;28;123708;-81
2023/12/01 10:24:40;;;;;;;;;;;;;;;;;;4998852;28;129624;-76
2023/12/01 10:27:08;;;;;;;;;;;;;;;;;;5001002;28;120810;-76
2023/12/01 10:29:34;;;;;;;;;;;;;;;;;;4997412;28;123969;-76
2023/12/01 10:32:01;;;;;;;;;;;;;;;;;;4993440;28;130115;-77
2023/12/01 10:34:27;;;;;;;;;;;;;;;;;;4992020;28;123400;-78
2023/12/01 10:36:54;;;;;;;;;;;;;;;;;;4992873;28;128929;-78
2023/12/01 10:39:20;;;;;;;;;;;;;;;;;;4996244;28;129560;-78
2023/12/01 10:41:47;;;;;;;;;;;;;;;;;;4998565;28;104111;-76
2023/12/01 10:44:13;;;;;;;;;;;;;;;;;;4994604;28;127886;-75
2023/12/01 10:46:39;;;;;;;;;;;;;;;;;;4993854;28;130832;-79
2023/12/01 10:49:06;;;;;;;;;;;;;;;;;;4990982;28;120084;-78
2023/12/01 10:51:32;;;;;;;;;;;;;;;;;;5000859;28;102447;-78
2023/12/01 10:53:59;;;;;;;;;;;;;;;;;;4992261;28;123181;-78
2023/12/01 10:56:25;;;;;;;;;;;;;;;;;;4992183;28;126764;-78
2023/12/01 10:58:55;;;;;;;;;;;;;;;;;;5000017;28;129610;-77
2023/12/01 11:01:22;;;;;;;;;;;;;;;;;;4998248;28;122906;-78
2023/12/01 11:03:49;;;;;;;;;;;;;;;;;;4996982;28;130291;-78
2023/12/01 11:06:15;;;;;;;;;;;;;;;;;;4992018;28;129393;-78
2023/12/01 11:08:41;;;;;;;;;;;;;;;;;;4999682;28;118144;-79
2023/12/01 11:11:08;;;;;;;;;;;;;;;;;;4997676;28;129108;-78
2023/12/01 11:13:37;;;;;;;;;;;;;;;;;;4997629;28;120935;-77
2023/12/01 11:16:03;;;;;;;;;;;;;;;;;;4999799;28;128933;-76
2023/12/01 11:18:30;;;;;;;;;;;;;;;;;;4999131;28;130273;-75
2023/12/01 11:20:56;;;;;;;;;;;;;;;;;;4999307;28;123351;-75
2023/12/01 11:23:25;;;;;;;;;;;;;;;;;;5000856;28;114545;-76
2023/12/01 11:25:53;;;;;;;;;;;;;;;;;;4998782;28;123541;-78
2023/12/01 11:28:23;;;;;;;;;;;;;;;;;;4999950;28;122869;-76
2023/12/01 11:30:49;;;;;;;;;;;;;;;;;;4997829;28;128846;-76
2023/12/01 11:33:15;;;;;;;;;;;;;;;;;;5002047;28;129048;-76
2023/12/01 11:35:42;;;;;;;;;;;;;;;;;;4998077;28;128987;-75
2023/12/01 11:38:08;;;;;;;;;;;;;;;;;;4999239;28;131110;-76
2023/12/01 11:40:34;;;;;;;;;;;;;;;;;;4998010;28;125545;-77
2023/12/01 11:43:02;;;;;;;;;;;;;;;;;;4995375;28;129148;-78
2023/12/01 11:45:44;;;;;;;;;;;;;;;;;;4998691;28;129530;-76
2023/12/01 11:48:10;;;;;;;;;;;;;;;;;;4999737;28;122972;-77
2023/12/01 11:50:38;;;;;;;;;;;;;;;;;;5001768;28;128925;-76
2023/12/01 11:53:05;;;;;;;;;;;;;;;;;;4994883;28;130269;-76
2023/12/01 11:55:31;;;;;;;;;;;;;;;;;;4999584;28;123000;-76
2023/12/01 11:57:58;;;;;;;;;;;;;;;;;;4998073;28;129480;-76
2023/12/01 12:00:25;;;;;;;;;;;;;;;;;;4996274;28;123047;-76
2023/12/01 12:02:52;;;;;;;;;;;;;;;;;;4994609;28;129775;-76
2023/12/01 12:05:20;;;;;;;;;;;;;;;;;;4995325;28;130987;-77
2023/12/01 12:07:46;;;;;;;;;;;;;;;;;;4996067;28;123019;-81
2023/12/01 12:10:14;;;;;;;;;;;;;;;;;;4993729;28;129403;-75
2023/12/01 12:12:40;;;;;;;;;;;;;;;;;;4994496;28;128235;-75
2023/12/01 12:15:07;;;;;;;;;;;;;;;;;;4995061;28;122938;-75
2023/12/01 12:17:33;;;;;;;;;;;;;;;;;;5001562;28;130076;-76
2023/12/01 12:20:00;;;;;;;;;;;;;;;;;;4998278;28;123814;-76
2023/12/01 12:22:34;;;;;;;;;;;;;;;;;;4995899;28;129288;-75
2023/12/01 12:25:01;;;;;;;;;;;;;;;;;;4997818;28;129430;-77
2023/12/01 12:27:27;;;;;;;;;;;;;;;;;;4991157;28;121017;-76
2023/12/01 12:29:53;;;;;;;;;;;;;;;;;;5000882;28;127507;-76
2023/12/01 12:32:20;;;;;;;;;;;;;;;;;;5001879;28;110698;-77
2023/12/01 12:34:46;;;;;;;;;;;;;;;;;;5000371;28;124034;-76
2023/12/01 12:37:13;;;;;;;;;;;;;;;;;;4996786;28;130071;-76
2023/12/01 12:39:39;;;;;;;;;;;;;;;;;;5000755;28;129631;-77
2023/12/01 12:42:09;;;;;;;;;;;;;;;;;;4989225;28;122158;-76
2023/12/01 12:44:35;;;;;;;;;;;;;;;;;;5006663;28;114927;-80
2023/12/01 12:47:06;;;;;;;;;;;;;;;;;;4999130;28;120312;-75
2023/12/01 12:49:32;;;;;;;;;;;;;;;;;;4993159;28;121727;-76
2023/12/01 12:52:02;;;;;;;;;;;;;;;;;;4992819;28;130302;-76
2023/12/01 12:54:29;;;;;;;;;;;;;;;;;;4993696;28;127267;-76
2023/12/01 12:56:55;;;;;;;;;;;;;;;;;;4993325;28;129040;-75
2023/12/01 12:59:21;;;;;;;;;;;;;;;;;;4995878;28;130587;-75
2023/12/01 13:01:48;;;;;;;;;;;;;;;;;;5000788;28;105350;-77
2023/12/01 13:04:14;;;;;;;;;;;;;;;;;;4997967;28;121675;-76
2023/12/01 13:06:41;;;;;;;;;;;;;;;;;;4996450;28;113046;-76
2023/12/01 13:09:14;;;;;;;;;;;;;;;;;;4997797;28;129388;-77
2023/12/01 13:11:40;;;;;;;;;;;;;;;;;;4993723;28;129556;-74
2023/12/01 13:14:06;;;;;;;;;;;;;;;;;;4995942;28;123561;-75
2023/12/01 13:16:33;;;;;;;;;;;;;;;;;;4998595;28;123835;-77
2023/12/01 13:19:01;;;;;;;;;;;;;;;;;;4999465;28;115429;-77
2023/12/01 13:21:28;;;;;;;;;;;;;;;;;;4991263;28;122525;-77
2023/12/01 13:23:54;;;;;;;;;;;;;;;;;;4999032;28;120275;-76
2023/12/01 13:26:21;;;;;;;;;;;;;;;;;;4994442;28;123697;-75
2023/12/01 13:28:47;;;;;;;;;;;;;;;;;;4992822;28;99982;-76
2023/12/01 13:31:13;;;;;;;;;;;;;;;;;;4995353;28;104552;-76
2023/12/01 13:33:40;;;;;;;;;;;;;;;;;;4997193;28;115593;-75
2023/12/01 13:36:09;;;;;;;;;;;;;;;;;;4992808;28;128924;-75
2023/12/01 13:38:37;;;;;;;;;;;;;;;;;;4991805;28;119104;-74
2023/12/01 13:41:03;;;;;;;;;;;;;;;;;;4990742;28;120611;-75
2023/12/01 13:43:29;;;;;;;;;;;;;;;;;;4999766;28;128999;-75
2023/12/01 13:45:57;;;;;;;;;;;;;;;;;;4995057;28;123026;-75
2023/12/01 13:48:23;;;;;;;;;;;;;;;;;;4992940;28;128918;-75
2023/12/01 13:50:50;;;;;;;;;;;;;;;;;;4996979;28;128768;-75
2023/12/01 13:53:16;;;;;;;;;;;;;;;;;;4993132;28;123403;-75
2023/12/01 13:55:42;;;;;;;;;;;;;;;;;;4995325;28;124461;-74
2023/12/01 13:58:11;;;;;;;;;;;;;;;;;;4997886;28;129641;-75
2023/12/01 14:00:38;;;;;;;;;;;;;;;;;;4991694;28;122325;-74
2023/12/01 14:03:06;;;;;;;;;;;;;;;;;;5002938;28;127620;-75
2023/12/01 14:05:39;;;;;;;;;;;;;;;;;;5000126;28;129659;-74
2023/12/01 14:08:06;;;;;;;;;;;;;;;;;;4995416;28;131514;-75
2023/12/01 14:10:32;;;;;;;;;;;;;;;;;;5007836;28;126174;-74
2023/12/01 14:13:00;;;;;;;;;;;;;;;;;;5001522;28;120068;-75
2023/12/01 14:15:26;;;;;;;;;;;;;;;;;;4998388;28;122478;-75
2023/12/01 14:17:53;;;;;;;;;;;;;;;;;;4995952;28;129449;-76
2023/12/01 14:20:20;;;;;;;;;;;;;;;;;;4993563;28;121657;-74
2023/12/01 14:22:46;;;;;;;;;;;;;;;;;;4995569;28;129068;-75
2023/12/01 14:25:13;;;;;;;;;;;;;;;;;;4995223;28;129389;-74
2023/12/01 14:27:39;;;;;;;;;;;;;;;;;;5002825;28;123060;-75
2023/12/01 14:30:06;;;;;;;;;;;;;;;;;;4992440;28;130259;-74
2023/12/01 14:32:32;;;;;;;;;;;;;;;;;;4998413;28;126245;-74
2023/12/01 14:34:59;;;;;;;;;;;;;;;;;;5003846;28;129560;-74
2023/12/01 14:37:26;;;;;;;;;;;;;;;;;;4993329;28;128279;-76
2023/12/01 14:39:52;;;;;;;;;;;;;;;;;;4996901;28;123054;-75
2023/12/01 14:42:18;;;;;;;;;;;;;;;;;;4998010;28;129874;-75
2023/12/01 14:44:45;;;;;;;;;;;;;;;;;;4998672;28;130155;-75
2023/12/01 14:47:11;;;;;;;;;;;;;;;;;;5005685;28;121187;-75
2023/12/01 14:49:37;;;;;;;;;;;;;;;;;;5004260;28;127574;-75
2023/12/01 14:52:04;;;;;;;;;;;;;;;;;;4999660;28;124286;-75
2023/12/01 14:54:30;;;;;;;;;;;;;;;;;;5006964;28;127510;-75
2023/12/01 14:56:56;;;;;;;;;;;;;;;;;;4992321;28;129708;-75
2023/12/01 14:59:23;;;;;;;;;;;;;;;;;;4990660;28;118938;-75
2023/12/01 15:01:51;;;;;;;;;;;;;;;;;;4991085;28;122045;-75
2023/12/01 15:04:18;;;;;;;;;;;;;;;;;;4993367;28;129732;-75
2023/12/01 15:06:44;;;;;;;;;;;;;;;;;;4987855;28;108742;-75
2023/12/01 15:09:14;;;;;;;;;;;;;;;;;;4986961;28;128603;-75
2023/12/01 15:11:42;;;;;;;;;;;;;;;;;;5005125;28;129897;-75
2023/12/01 15:14:09;;;;;;;;;;;;;;;;;;5001364;28;128978;-75
2023/12/01 15:16:35;;;;;;;;;;;;;;;;;;5009076;28;130061;-74
2023/12/01 15:19:01;;;;;;;;;;;;;;;;;;5014125;28;120849;-74
2023/12/01 15:21:28;;;;;;;;;;;;;;;;;;5006657;28;128933;-74
2023/12/01 15:23:54;;;;;;;;;;;;;;;;;;5013863;28;128777;-76
2023/12/01 15:26:21;;;;;;;;;;;;;;;;;;5007765;28;118655;-76
2023/12/01 15:28:47;;;;;;;;;;;;;;;;;;4995783;28;129143;-76
2023/12/01 15:31:14;;;;;;;;;;;;;;;;;;4994611;28;129945;-76
2023/12/01 15:33:40;;;;;;;;;;;;;;;;;;4998380;28;123393;-76
2023/12/01 15:36:07;;;;;;;;;;;;;;;;;;4994968;28;129405;-76
2023/12/01 15:38:33;;;;;;;;;;;;;;;;;;4997021;28;123108;-75
2023/12/01 15:40:59;;;;;;;;;;;;;;;;;;5000077;28;129478;-75
2023/12/01 15:43:26;;;;;;;;;;;;;;;;;;4994264;28;128170;-74
2023/12/01 15:45:52;;;;;;;;;;;;;;;;;;4985941;28;125402;-76
2023/12/01 15:48:21;;;;;;;;;;;;;;;;;;4995481;28;129334;-76
2023/12/01 15:50:48;;;;;;;;;;;;;;;;;;4998640;28;130156;-76
2023/12/01 15:53:14;;;;;;;;;;;;;;;;;;4997498;28;122642;-76
2023/12/01 15:55:41;;;;;;;;;;;;;;;;;;4993275;28;129068;-74
2023/12/01 15:58:07;;;;;;;;;;;;;;;;;;4997039;28;120373;-76
2023/12/01 16:00:33;;;;;;;;;;;;;;;;;;5006464;28;130003;-75
2023/12/01 16:03:00;;;;;;;;;;;;;;;;;;4990423;28;129359;-75
2023/12/01 16:05:26;;;;;;;;;;;;;;;;;;4989008;28;123504;-74
2023/12/01 16:07:53;;;;;;;;;;;;;;;;;;4989539;28;128489;-75
2023/12/01 16:10:19;;;;;;;;;;;;;;;;;;4999387;28;100647;-76
2023/12/01 16:12:46;;;;;;;;;;;;;;;;;;4999982;28;121830;-76
2023/12/01 16:15:12;;;;;;;;;;;;;;;;;;4998561;28;129073;-75
2023/12/01 16:17:42;;;;;;;;;;;;;;;;;;4999762;28;120821;-74
2023/12/01 16:20:09;;;;;;;;;;;;;;;;;;4999981;28;129911;-74
2023/12/01 16:22:36;;;;;;;;;;;;;;;;;;5001248;28;121596;-75
2023/12/01 16:25:02;;;;;;;;;;;;;;;;;;5006187;28;119552;-75